Time;durP1;ratioP1;P1;durP2;ratioP2;P2;SDS_P1;SDS_P2;PMS_P1;PMS_P2;Temp;Humidity;BMP_temperature;BMP_pressure;BME280_temperature;BME280_humidity;BME280_pressure;Samples;Min_cycle;Max_cycle;Signal;HPM_P1;HPM_P2
2023/05/19 00:00:13;;;;;;;10.77;5.85;;;;;;;;;;6170901;28;20074;-77
2023/05/19 00:03:20;;;;;;;7.28;5.18;;;;;;;;;;6169539;28;20038;-79
2023/05/19 00:06:24;;;;;;;8.10;5.50;;;;;;;;;;6168105;28;20355;-78
2023/05/19 00:09:26;;;;;;;8.10;4.93;;;;;;;;;;6165206;28;20118;-78
2023/05/19 00:12:28;;;;;;;7.85;5.32;;;;;;;;;;6149683;28;20079;-78
2023/05/19 00:15:30;;;;;;;11.70;5.40;;;;;;;;;;6168844;28;20266;-78
2023/05/19 00:18:33;;;;;;;13.50;5.07;;;;;;;;;;6183856;28;20097;-79
2023/05/19 00:21:37;;;;;;;8.37;5.57;;;;;;;;;;6173169;28;20090;-79
2023/05/19 00:24:39;;;;;;;7.72;4.95;;;;;;;;;;6167517;28;20669;-79
2023/05/19 00:27:41;;;;;;;7.85;4.75;;;;;;;;;;6171937;28;20058;-78
2023/05/19 00:30:42;;;;;;;10.40;5.38;;;;;;;;;;6168232;28;20062;-78
2023/05/19 00:33:45;;;;;;;8.20;4.72;;;;;;;;;;6169711;28;20054;-80
2023/05/19 00:36:47;;;;;;;8.03;5.00;;;;;;;;;;6174324;28;20089;-80
2023/05/19 00:39:49;;;;;;;7.53;5.25;;;;;;;;;;6171690;28;20097;-80
2023/05/19 00:42:51;;;;;;;8.65;5.20;;;;;;;;;;6174773;28;20058;-79
2023/05/19 00:45:52;;;;;;;8.73;5.95;;;;;;;;;;6161931;28;20067;-80
2023/05/19 00:48:55;;;;;;;7.30;5.38;;;;;;;;;;6172476;28;20117;-80
2023/05/19 00:51:57;;;;;;;8.57;5.37;;;;;;;;;;6188271;28;20039;-79
2023/05/19 00:54:59;;;;;;;6.72;4.70;;;;;;;;;;6169732;28;20131;-79
2023/05/19 00:58:01;;;;;;;7.93;5.20;;;;;;;;;;6171457;28;20339;-77
2023/05/19 01:01:06;;;;;;;7.95;4.90;;;;;;;;;;6188152;28;20235;-78
2023/05/19 01:04:15;;;;;;;6.80;4.78;;;;;;;;;;6183858;28;20053;-77
2023/05/19 01:07:17;;;;;;;6.97;4.45;;;;;;;;;;6172001;28;20105;-78
2023/05/19 01:10:19;;;;;;;7.53;4.80;;;;;;;;;;6169719;28;20397;-78
2023/05/19 01:13:21;;;;;;;7.45;4.97;;;;;;;;;;6170996;28;20054;-79
2023/05/19 01:16:33;;;;;;;10.95;5.00;;;;;;;;;;6169278;28;20058;-79
2023/05/19 01:19:52;;;;;;;6.90;4.50;;;;;;;;;;6191125;28;20058;-77
2023/05/19 01:23:18;;;;;;;6.57;4.72;;;;;;;;;;6180167;28;20058;-77
2023/05/19 01:26:58;;;;;;;6.88;4.25;;;;;;;;;;6170935;28;20121;-78
2023/05/19 01:30:27;;;;;;;4.43;3.80;;;;;;;;;;6183535;28;20093;-78
2023/05/19 01:33:30;;;;;;;6.53;4.40;;;;;;;;;;6188899;28;20062;-79
2023/05/19 01:36:32;;;;;;;7.63;4.30;;;;;;;;;;6195089;28;21021;-78
2023/05/19 01:39:35;;;;;;;6.55;4.18;;;;;;;;;;6193991;28;20050;-80
2023/05/19 01:42:38;;;;;;;5.13;4.13;;;;;;;;;;6190105;28;20050;-80
2023/05/19 01:45:44;;;;;;;5.43;3.78;;;;;;;;;;6192583;28;20070;-79
2023/05/19 01:48:50;;;;;;;6.13;3.90;;;;;;;;;;6183364;28;20085;-80
2023/05/19 01:51:52;;;;;;;4.95;3.53;;;;;;;;;;6184498;28;20050;-80
2023/05/19 01:54:54;;;;;;;7.60;4.15;;;;;;;;;;6193896;28;20065;-78
2023/05/19 01:58:02;;;;;;;5.20;3.95;;;;;;;;;;6191355;28;20274;-79
2023/05/19 02:01:11;;;;;;;6.43;4.47;;;;;;;;;;6195416;28;20275;-79
2023/05/19 02:04:18;;;;;;;9.18;5.78;;;;;;;;;;6192742;28;20342;-78
2023/05/19 02:07:26;;;;;;;7.93;5.97;;;;;;;;;;6194213;28;20053;-77
2023/05/19 02:10:30;;;;;;;9.27;5.55;;;;;;;;;;6195536;28;20270;-77
2023/05/19 02:13:36;;;;;;;6.50;5.20;;;;;;;;;;6192128;28;20392;-79
2023/05/19 02:16:42;;;;;;;8.63;6.00;;;;;;;;;;6195768;28;20046;-79
2023/05/19 02:19:44;;;;;;;10.35;6.70;;;;;;;;;;6191620;28;20160;-80
2023/05/19 02:22:46;;;;;;;8.75;6.20;;;;;;;;;;6197081;28;20069;-81
2023/05/19 02:25:48;;;;;;;11.02;6.38;;;;;;;;;;6192807;28;20112;-78
2023/05/19 02:28:49;;;;;;;10.05;7.18;;;;;;;;;;6200088;28;20286;-78
2023/05/19 02:31:52;;;;;;;7.93;6.82;;;;;;;;;;6197802;28;20058;-78
2023/05/19 02:34:55;;;;;;;9.35;7.05;;;;;;;;;;6201129;28;20046;-78
2023/05/19 02:37:57;;;;;;;11.43;8.10;;;;;;;;;;6192729;28;20288;-78
2023/05/19 02:40:59;;;;;;;10.18;8.18;;;;;;;;;;6172659;28;20063;-78
2023/05/19 02:44:01;;;;;;;11.77;7.90;;;;;;;;;;6174763;28;20038;-78
2023/05/19 02:47:04;;;;;;;11.95;8.45;;;;;;;;;;6175221;28;20282;-78
2023/05/19 02:50:07;;;;;;;9.70;7.45;;;;;;;;;;6174423;28;20243;-78
2023/05/19 02:53:09;;;;;;;9.43;8.00;;;;;;;;;;6189308;28;20349;-78
2023/05/19 02:56:11;;;;;;;10.43;7.65;;;;;;;;;;6172277;28;20067;-77
2023/05/19 02:59:12;;;;;;;8.98;7.65;;;;;;;;;;6173077;28;20066;-78
2023/05/19 03:02:15;;;;;;;10.15;7.25;;;;;;;;;;6173103;28;20059;-78
2023/05/19 03:05:17;;;;;;;11.57;7.50;;;;;;;;;;6170713;28;20082;-78
2023/05/19 03:08:18;;;;;;;10.27;7.93;;;;;;;;;;6172044;28;20073;-78
2023/05/19 03:11:22;;;;;;;10.75;7.82;;;;;;;;;;6188602;28;20069;-77
2023/05/19 03:14:23;;;;;;;10.15;7.30;;;;;;;;;;6171174;28;20122;-77
2023/05/19 03:17:27;;;;;;;10.70;8.20;;;;;;;;;;6168569;28;20051;-77
2023/05/19 03:20:29;;;;;;;10.10;7.55;;;;;;;;;;6173574;28;20042;-79
2023/05/19 03:23:31;;;;;;;10.90;7.68;;;;;;;;;;6172403;28;20054;-77
2023/05/19 03:26:32;;;;;;;12.25;7.47;;;;;;;;;;6174936;28;22232;-77
2023/05/19 03:29:34;;;;;;;13.85;7.40;;;;;;;;;;6171639;28;20038;-77
2023/05/19 03:32:37;;;;;;;8.98;7.13;;;;;;;;;;6173450;28;20063;-79
2023/05/19 03:35:39;;;;;;;9.10;7.30;;;;;;;;;;6173832;28;20275;-77
2023/05/19 03:38:43;;;;;;;11.55;7.68;;;;;;;;;;6173924;28;20149;-80
2023/05/19 03:41:45;;;;;;;14.48;8.00;;;;;;;;;;6173060;28;20051;-80
2023/05/19 03:44:47;;;;;;;11.88;7.10;;;;;;;;;;6175064;28;20054;-79
2023/05/19 03:47:50;;;;;;;9.13;7.10;;;;;;;;;;6171479;28;20065;-79
2023/05/19 03:50:51;;;;;;;10.87;7.40;;;;;;;;;;6173295;28;20109;-77
2023/05/19 03:53:53;;;;;;;9.00;7.07;;;;;;;;;;6173386;28;20047;-79
2023/05/19 03:56:55;;;;;;;11.20;7.40;;;;;;;;;;6172634;28;20058;-79
2023/05/19 03:59:56;;;;;;;8.50;6.90;;;;;;;;;;6173539;28;20327;-78
2023/05/19 04:03:00;;;;;;;9.88;7.03;;;;;;;;;;6171162;28;20098;-79
2023/05/19 04:06:01;;;;;;;9.25;6.63;;;;;;;;;;6184558;28;20125;-79
2023/05/19 04:09:04;;;;;;;10.65;6.78;;;;;;;;;;6178252;28;20066;-79
2023/05/19 04:12:07;;;;;;;8.30;5.57;;;;;;;;;;6170830;28;20078;-79
2023/05/19 04:15:10;;;;;;;9.82;6.25;;;;;;;;;;6173182;28;20094;-78
2023/05/19 04:18:13;;;;;;;10.02;5.40;;;;;;;;;;6185530;28;20047;-79
2023/05/19 04:21:14;;;;;;;8.13;5.30;;;;;;;;;;6172147;28;20118;-78
2023/05/19 04:24:16;;;;;;;9.20;5.03;;;;;;;;;;6169194;28;20347;-78
2023/05/19 04:27:18;;;;;;;7.82;5.55;;;;;;;;;;6169520;28;20106;-79
2023/05/19 04:30:21;;;;;;;7.80;5.20;;;;;;;;;;6171133;28;20043;-77
2023/05/19 04:33:24;;;;;;;8.88;5.38;;;;;;;;;;6172438;28;20156;-78
2023/05/19 04:36:26;;;;;;;9.23;4.70;;;;;;;;;;6171226;28;20055;-77
2023/05/19 04:39:28;;;;;;;8.80;5.43;;;;;;;;;;6170333;28;20058;-77
2023/05/19 04:42:31;;;;;;;7.53;4.97;;;;;;;;;;6171428;28;20179;-76
2023/05/19 04:45:33;;;;;;;6.90;4.57;;;;;;;;;;6170422;28;20055;-79
2023/05/19 04:48:36;;;;;;;14.93;5.63;;;;;;;;;;6170076;28;20246;-78
2023/05/19 04:51:40;;;;;;;7.07;4.72;;;;;;;;;;6171884;28;20097;-79
2023/05/19 04:54:41;;;;;;;;;;;;;;;;;;6170504;28;20054;-80
2023/05/19 04:57:43;;;;;;;8.23;4.70;;;;;;;;;;6169393;28;19926;-78
2023/05/19 05:00:44;;;;;;;7.93;4.60;;;;;;;;;;6166503;28;20114;-79
2023/05/19 05:03:47;;;;;;;7.65;4.20;;;;;;;;;;6168104;28;20394;-80
2023/05/19 05:06:49;;;;;;;8.70;4.57;;;;;;;;;;6170484;28;20090;-81
2023/05/19 05:09:51;;;;;;;12.93;4.80;;;;;;;;;;6169412;28;20065;-80
2023/05/19 05:12:53;;;;;;;6.03;4.75;;;;;;;;;;6171307;28;20055;-79
2023/05/19 05:15:55;;;;;;;8.55;4.57;;;;;;;;;;6164745;28;20998;-82
2023/05/19 05:18:59;;;;;;;8.07;4.22;;;;;;;;;;6170184;28;20278;-80
2023/05/19 05:22:01;;;;;;;7.65;4.80;;;;;;;;;;6186842;28;20532;-79
2023/05/19 05:25:04;;;;;;;10.48;5.10;;;;;;;;;;6164817;28;20077;-78
2023/05/19 05:28:05;;;;;;;9.52;5.03;;;;;;;;;;6169362;28;20050;-79
2023/05/19 05:31:07;;;;;;;7.93;4.40;;;;;;;;;;6170078;28;20062;-78
2023/05/19 05:34:10;;;;;;;7.82;4.80;;;;;;;;;;6170866;28;20105;-79
2023/05/19 05:37:12;;;;;;;7.80;4.30;;;;;;;;;;6169409;28;20062;-78
2023/05/19 05:40:14;;;;;;;6.95;3.97;;;;;;;;;;6169180;28;20466;-79
2023/05/19 05:43:15;;;;;;;9.27;4.55;;;;;;;;;;6170328;28;20054;-81
2023/05/19 05:46:17;;;;;;;6.07;3.78;;;;;;;;;;6169314;28;20050;-80
2023/05/19 05:49:21;;;;;;;5.68;3.97;;;;;;;;;;6185355;28;20050;-80
2023/05/19 05:52:22;;;;;;;;;;;;;;;;;;6169412;28;20054;-77
2023/05/19 05:55:25;;;;;;;6.30;4.18;;;;;;;;;;6166096;28;19957;-81
2023/05/19 05:58:28;;;;;;;10.18;4.25;;;;;;;;;;6171544;28;20126;-80
2023/05/19 06:01:30;;;;;;;9.18;4.32;;;;;;;;;;6186290;28;20058;-80
2023/05/19 06:04:33;;;;;;;7.05;4.10;;;;;;;;;;6173946;28;20113;-80
2023/05/19 06:07:36;;;;;;;6.17;4.03;;;;;;;;;;6172147;28;20066;-79
2023/05/19 06:10:40;;;;;;;8.00;4.43;;;;;;;;;;6187390;28;20058;-83
2023/05/19 06:13:42;;;;;;;7.20;4.10;;;;;;;;;;6193805;28;20468;-79
2023/05/19 06:16:46;;;;;;;7.75;4.30;;;;;;;;;;6172129;28;20278;-80
2023/05/19 06:19:49;;;;;;;5.78;4.20;;;;;;;;;;6173182;28;20378;-83
2023/05/19 06:22:51;;;;;;;9.20;4.37;;;;;;;;;;6176449;28;20051;-80
2023/05/19 06:25:53;;;;;;;8.07;4.22;;;;;;;;;;6192514;28;20267;-78
2023/05/19 06:28:55;;;;;;;12.55;4.70;;;;;;;;;;6173139;28;20055;-77
2023/05/19 06:31:56;;;;;;;6.35;4.55;;;;;;;;;;6200679;28;20042;-79
2023/05/19 06:34:59;;;;;;;8.65;3.88;;;;;;;;;;6199243;28;20046;-78
2023/05/19 06:38:01;;;;;;;7.85;4.72;;;;;;;;;;6198078;28;20261;-84
2023/05/19 06:41:03;;;;;;;7.20;4.03;;;;;;;;;;6197965;28;20066;-80
2023/05/19 06:44:07;;;;;;;7.05;4.07;;;;;;;;;;6198121;28;20058;-79
2023/05/19 06:47:08;;;;;;;6.15;4.35;;;;;;;;;;6197422;28;20058;-79
2023/05/19 06:50:11;;;;;;;7.20;4.60;;;;;;;;;;6196555;28;20054;-78
2023/05/19 06:53:13;;;;;;;9.20;4.80;;;;;;;;;;6196077;28;20275;-79
2023/05/19 06:56:15;;;;;;;8.18;4.97;;;;;;;;;;6199134;28;20046;-78
2023/05/19 06:59:20;;;;;;;8.48;4.60;;;;;;;;;;6196165;28;20062;-78
2023/05/19 07:02:22;;;;;;;9.52;4.80;;;;;;;;;;6197680;28;20109;-79
2023/05/19 07:05:25;;;;;;;7.78;4.82;;;;;;;;;;6196846;28;20050;-83
2023/05/19 07:08:26;;;;;;;8.57;5.07;;;;;;;;;;6198733;28;20334;-79
2023/05/19 07:11:28;;;;;;;8.48;4.50;;;;;;;;;;6197083;28;20106;-79
2023/05/19 07:14:30;;;;;;;7.57;5.00;;;;;;;;;;6198304;28;20058;-79
2023/05/19 07:17:32;;;;;;;8.25;5.22;;;;;;;;;;6198131;28;20326;-78
2023/05/19 07:20:35;;;;;;;9.07;4.85;;;;;;;;;;6195723;28;20073;-80
2023/05/19 07:23:37;;;;;;;7.05;4.78;;;;;;;;;;6198054;28;20058;-79
2023/05/19 07:26:38;;;;;;;12.70;5.45;;;;;;;;;;6198184;28;20196;-80
2023/05/19 07:29:40;;;;;;;7.25;4.85;;;;;;;;;;6196240;28;20050;-82
2023/05/19 07:32:42;;;;;;;10.52;5.30;;;;;;;;;;6197261;28;20065;-81
2023/05/19 07:35:45;;;;;;;7.80;4.88;;;;;;;;;;6197964;28;20050;-79
2023/05/19 07:38:47;;;;;;;7.65;5.50;;;;;;;;;;6196207;28;20059;-78
2023/05/19 07:41:53;;;;;;;11.63;5.68;;;;;;;;;;6196512;28;20058;-78
2023/05/19 07:44:54;;;;;;;9.60;5.57;;;;;;;;;;6196398;28;20053;-82
2023/05/19 07:47:56;;;;;;;9.60;4.68;;;;;;;;;;6196421;28;20058;-80
2023/05/19 07:50:59;;;;;;;7.75;4.82;;;;;;;;;;6195170;28;20062;-78
2023/05/19 07:54:01;;;;;;;8.15;5.45;;;;;;;;;;6195742;28;20306;-83
2023/05/19 07:57:03;;;;;;;7.57;5.38;;;;;;;;;;6196837;28;20054;-78
2023/05/19 08:00:10;;;;;;;7.57;4.85;;;;;;;;;;6196093;28;20054;-79
2023/05/19 08:03:12;;;;;;;8.52;5.32;;;;;;;;;;6195030;28;20564;-78
2023/05/19 08:06:15;;;;;;;7.93;4.95;;;;;;;;;;6195509;28;20138;-79
2023/05/19 08:09:16;;;;;;;9.57;5.27;;;;;;;;;;6195898;28;20062;-82
2023/05/19 08:12:18;;;;;;;10.07;6.00;;;;;;;;;;6194981;28;20472;-78
2023/05/19 08:15:20;;;;;;;9.57;4.78;;;;;;;;;;6195896;28;20167;-78
2023/05/19 08:18:22;;;;;;;8.75;5.20;;;;;;;;;;6192933;28;20319;-81
2023/05/19 08:21:25;;;;;;;8.43;5.45;;;;;;;;;;6196637;28;20324;-83
2023/05/19 08:24:28;;;;;;;10.32;5.35;;;;;;;;;;6195994;28;20120;-80
2023/05/19 08:27:30;;;;;;;8.47;5.20;;;;;;;;;;6196365;28;20326;-79
2023/05/19 08:30:31;;;;;;;8.90;5.30;;;;;;;;;;6194897;28;20125;-82
2023/05/19 08:33:33;;;;;;;9.88;4.93;;;;;;;;;;6198657;28;20101;-80
2023/05/19 08:36:36;;;;;;;8.75;5.50;;;;;;;;;;6195833;28;20074;-80
2023/05/19 08:39:38;;;;;;;10.55;5.70;;;;;;;;;;6195628;28;20050;-79
2023/05/19 08:42:40;;;;;;;13.52;5.13;;;;;;;;;;6195455;28;20152;-80
2023/05/19 08:45:45;;;;;;;8.13;5.65;;;;;;;;;;6194427;28;20130;-79
2023/05/19 08:48:48;;;;;;;11.23;5.53;;;;;;;;;;6195625;28;20065;-82
2023/05/19 08:51:57;;;;;;;8.48;5.50;;;;;;;;;;6194400;28;20417;-78
2023/05/19 08:55:01;;;;;;;7.72;5.13;;;;;;;;;;6194454;28;20124;-79
2023/05/19 08:58:04;;;;;;;9.40;5.32;;;;;;;;;;6194170;28;20046;-80
2023/05/19 09:01:07;;;;;;;10.90;5.55;;;;;;;;;;6192227;28;20354;-78
2023/05/19 09:04:09;;;;;;;8.77;5.53;;;;;;;;;;6195683;28;20058;-83
2023/05/19 09:07:13;;;;;;;9.45;6.00;;;;;;;;;;6195210;28;20073;-79
2023/05/19 09:10:15;;;;;;;7.47;5.45;;;;;;;;;;6194277;28;20112;-79
2023/05/19 09:13:17;;;;;;;10.75;5.82;;;;;;;;;;6197292;28;20061;-79
2023/05/19 09:16:18;;;;;;;8.93;5.75;;;;;;;;;;6193360;28;20121;-79
2023/05/19 09:19:21;;;;;;;10.02;5.93;;;;;;;;;;6193418;28;20397;-79
2023/05/19 09:22:25;;;;;;;10.45;6.00;;;;;;;;;;6192968;28;20050;-77
2023/05/19 09:25:26;;;;;;;;;;;;;;;;;;6194638;28;20058;-79
2023/05/19 09:28:30;;;;;;;10.30;6.45;;;;;;;;;;6193864;28;19956;-78
2023/05/19 09:31:32;;;;;;;9.90;6.57;;;;;;;;;;6194088;28;20132;-81
2023/05/19 09:34:34;;;;;;;9.77;5.93;;;;;;;;;;6195415;28;20080;-81
2023/05/19 09:37:39;;;;;;;10.25;7.05;;;;;;;;;;6192847;28;20340;-80
2023/05/19 09:40:41;;;;;;;9.70;7.30;;;;;;;;;;6194366;28;20058;-80
2023/05/19 09:43:42;;;;;;;9.63;6.57;;;;;;;;;;6196167;28;20118;-80
2023/05/19 09:46:47;;;;;;;8.55;6.47;;;;;;;;;;6193537;28;20050;-80
2023/05/19 09:49:50;;;;;;;8.95;6.65;;;;;;;;;;6194372;28;20109;-80
2023/05/19 09:52:54;;;;;;;8.80;6.85;;;;;;;;;;6193201;28;20060;-79
2023/05/19 09:55:56;;;;;;;9.75;6.53;;;;;;;;;;6194315;28;20054;-80
2023/05/19 09:58:58;;;;;;;9.27;6.68;;;;;;;;;;6192884;28;20065;-80
2023/05/19 10:02:00;;;;;;;9.60;7.10;;;;;;;;;;6193732;28;20057;-79
2023/05/19 10:05:03;;;;;;;9.95;6.43;;;;;;;;;;6191934;28;20055;-78
2023/05/19 10:08:09;;;;;;;9.43;6.72;;;;;;;;;;6192695;28;20136;-79
2023/05/19 10:11:12;;;;;;;11.40;7.22;;;;;;;;;;6193222;28;20050;-81
2023/05/19 10:14:14;;;;;;;12.63;6.70;;;;;;;;;;6193771;28;20057;-80
2023/05/19 10:17:15;;;;;;;11.18;6.22;;;;;;;;;;6194660;28;20054;-79
2023/05/19 10:20:17;;;;;;;9.07;6.22;;;;;;;;;;6191935;28;20228;-79
2023/05/19 10:23:21;;;;;;;11.27;6.53;;;;;;;;;;6192285;28;20097;-78
2023/05/19 10:26:23;;;;;;;8.98;6.10;;;;;;;;;;6195426;28;20104;-77
2023/05/19 10:29:28;;;;;;;11.73;6.88;;;;;;;;;;6191793;28;20305;-80
2023/05/19 10:32:31;;;;;;;10.18;6.28;;;;;;;;;;6195141;28;20050;-80
2023/05/19 10:36:01;;;;;;;8.18;5.55;;;;;;;;;;6195446;28;20058;-80
2023/05/19 10:39:07;;;;;;;8.45;5.85;;;;;;;;;;6194962;28;20244;-82
2023/05/19 10:42:15;;;;;;;7.70;5.60;;;;;;;;;;6195518;28;20204;-82
2023/05/19 10:45:18;;;;;;;40.03;25.48;;;;;;;;;;6190405;28;20062;-80
2023/05/19 10:48:21;;;;;;;50.78;28.20;;;;;;;;;;6198258;28;20066;-81
2023/05/19 10:51:28;;;;;;;28.23;16.60;;;;;;;;;;6199249;28;20267;-78
2023/05/19 10:54:42;;;;;;;34.53;20.55;;;;;;;;;;6199797;28;20536;-80
2023/05/19 10:57:55;;;;;;;50.67;31.20;;;;;;;;;;6199846;28;20078;-81
2023/05/19 11:01:00;;;;;;;27.20;15.82;;;;;;;;;;6198248;28;20062;-79
2023/05/19 11:04:06;;;;;;;22.42;15.32;;;;;;;;;;6200831;28;20050;-82
2023/05/19 11:07:10;;;;;;;15.10;9.07;;;;;;;;;;6196577;28;20054;-80
2023/05/19 11:10:13;;;;;;;10.07;6.25;;;;;;;;;;6200707;28;20252;-81
2023/05/19 11:13:20;;;;;;;10.45;7.38;;;;;;;;;;6198739;28;20293;-79
2023/05/19 11:16:29;;;;;;;7.95;6.32;;;;;;;;;;6195821;28;20096;-79
2023/05/19 11:19:31;;;;;;;8.43;6.45;;;;;;;;;;6194713;28;20078;-80
2023/05/19 11:22:34;;;;;;;8.23;6.40;;;;;;;;;;6196157;28;20062;-81
2023/05/19 11:25:45;;;;;;;9.30;6.30;;;;;;;;;;6195828;28;20046;-83
2023/05/19 11:28:47;;;;;;;10.45;7.30;;;;;;;;;;6196644;28;20062;-78
2023/05/19 11:31:50;;;;;;;11.88;7.13;;;;;;;;;;6196951;28;20220;-80
2023/05/19 11:34:55;;;;;;;12.85;7.60;;;;;;;;;;6199183;28;20394;-80
2023/05/19 11:37:57;;;;;;;10.00;7.57;;;;;;;;;;6194091;28;20042;-80
2023/05/19 11:41:00;;;;;;;13.05;8.90;;;;;;;;;;6197553;28;20093;-80
2023/05/19 11:44:02;;;;;;;11.23;9.00;;;;;;;;;;6197126;28;20115;-79
2023/05/19 11:47:04;;;;;;;12.55;8.95;;;;;;;;;;6195403;28;20282;-79
2023/05/19 11:50:07;;;;;;;15.27;9.63;;;;;;;;;;6197138;28;20054;-79
2023/05/19 11:53:11;;;;;;;13.75;9.45;;;;;;;;;;6195491;28;20054;-81
2023/05/19 11:56:15;;;;;;;13.35;9.70;;;;;;;;;;6195874;28;20391;-79
2023/05/19 11:59:17;;;;;;;16.13;10.00;;;;;;;;;;6197128;28;20057;-80
2023/05/19 12:02:20;;;;;;;14.10;10.13;;;;;;;;;;6198214;28;20093;-85
2023/05/19 12:05:22;;;;;;;19.43;10.70;;;;;;;;;;6197250;28;20334;-78
2023/05/19 12:08:25;;;;;;;15.43;9.65;;;;;;;;;;6195064;28;20851;-79
2023/05/19 12:11:30;;;;;;;17.92;10.52;;;;;;;;;;6195188;28;20061;-79
2023/05/19 12:14:33;;;;;;;18.90;12.63;;;;;;;;;;6196033;28;20054;-80
2023/05/19 12:17:34;;;;;;;27.92;17.58;;;;;;;;;;6195531;28;20062;-83
2023/05/19 12:20:36;;;;;;;18.33;12.80;;;;;;;;;;6197120;28;20384;-81
2023/05/19 12:23:38;;;;;;;17.25;11.65;;;;;;;;;;6196465;28;20157;-77
2023/05/19 12:26:42;;;;;;;13.00;9.90;;;;;;;;;;6196277;28;20049;-78
2023/05/19 12:29:43;;;;;;;15.98;10.13;;;;;;;;;;6196405;28;20061;-78
2023/05/19 12:32:47;;;;;;;18.02;10.27;;;;;;;;;;6194966;28;20101;-78
2023/05/19 12:35:49;;;;;;;15.07;10.10;;;;;;;;;;6195725;28;20073;-78
2023/05/19 12:38:54;;;;;;;12.30;8.50;;;;;;;;;;6198876;28;20345;-79
2023/05/19 12:42:02;;;;;;;13.18;9.45;;;;;;;;;;6196792;28;20066;-79
2023/05/19 12:45:05;;;;;;;13.13;9.70;;;;;;;;;;6194139;28;20100;-79
2023/05/19 12:48:12;;;;;;;13.70;9.68;;;;;;;;;;6194876;28;20062;-79
2023/05/19 12:51:17;;;;;;;13.07;9.43;;;;;;;;;;6195762;28;20061;-81
2023/05/19 12:54:19;;;;;;;16.00;10.77;;;;;;;;;;6195744;28;20215;-80
2023/05/19 12:57:23;;;;;;;19.15;11.43;;;;;;;;;;6195540;28;20338;-79
2023/05/19 13:00:29;;;;;;;15.40;10.88;;;;;;;;;;6195159;28;20049;-79
2023/05/19 13:03:31;;;;;;;17.67;11.32;;;;;;;;;;6194910;28;20058;-79
2023/05/19 13:06:34;;;;;;;15.30;10.27;;;;;;;;;;6195574;28;20085;-79
2023/05/19 13:09:37;;;;;;;17.45;11.38;;;;;;;;;;6194885;28;20066;-81
2023/05/19 13:12:40;;;;;;;15.45;11.40;;;;;;;;;;6194617;28;20074;-79
2023/05/19 13:15:43;;;;;;;18.92;11.40;;;;;;;;;;6193442;28;20114;-78
2023/05/19 13:18:45;;;;;;;16.02;11.57;;;;;;;;;;6194815;28;20122;-80
2023/05/19 13:21:48;;;;;;;16.60;11.90;;;;;;;;;;6194374;28;20061;-78
2023/05/19 13:24:52;;;;;;;18.60;11.60;;;;;;;;;;6196976;28;20089;-79
2023/05/19 13:27:55;;;;;;;18.83;11.70;;;;;;;;;;6194749;28;20046;-78
2023/05/19 13:30:58;;;;;;;19.63;12.27;;;;;;;;;;6193684;28;20058;-78
2023/05/19 13:34:00;;;;;;;19.98;12.48;;;;;;;;;;6197169;28;20157;-79
2023/05/19 13:37:02;;;;;;;20.23;13.20;;;;;;;;;;6194748;28;20375;-78
2023/05/19 13:40:04;;;;;;;19.23;12.65;;;;;;;;;;6196216;28;20322;-80
2023/05/19 13:43:08;;;;;;;19.45;13.02;;;;;;;;;;6195626;28;20249;-78
2023/05/19 13:46:09;;;;;;;20.85;13.13;;;;;;;;;;6194497;28;20207;-81
2023/05/19 13:49:11;;;;;;;18.98;13.55;;;;;;;;;;6192638;28;20057;-80
2023/05/19 13:52:13;;;;;;;21.75;14.25;;;;;;;;;;6194665;28;20104;-80
2023/05/19 13:55:15;;;;;;;22.90;14.85;;;;;;;;;;6191439;28;20047;-80
2023/05/19 13:58:18;;;;;;;22.20;13.70;;;;;;;;;;6196513;28;20050;-81
2023/05/19 14:01:20;;;;;;;24.02;15.05;;;;;;;;;;6192887;28;20054;-80
2023/05/19 14:04:22;;;;;;;23.92;14.55;;;;;;;;;;6195073;28;20298;-80
2023/05/19 14:07:24;;;;;;;22.73;15.02;;;;;;;;;;6193806;28;20136;-81
2023/05/19 14:10:26;;;;;;;23.77;15.07;;;;;;;;;;6193104;28;20050;-82
2023/05/19 14:13:29;;;;;;;21.63;14.18;;;;;;;;;;6194350;28;20170;-80
2023/05/19 14:16:30;;;;;;;19.07;12.33;;;;;;;;;;6194043;28;20397;-81
2023/05/19 14:19:32;;;;;;;17.67;11.50;;;;;;;;;;6190451;28;20058;-82
2023/05/19 14:22:34;;;;;;;62.38;32.00;;;;;;;;;;6195963;28;20051;-85
2023/05/19 14:25:35;;;;;;;27.50;16.88;;;;;;;;;;6199302;28;20322;-84
2023/05/19 14:28:38;;;;;;;48.63;25.90;;;;;;;;;;6203809;28;20110;-79
2023/05/19 14:31:40;;;;;;;72.50;41.07;;;;;;;;;;6203316;28;20082;-82
2023/05/19 14:34:41;;;;;;;30.38;17.50;;;;;;;;;;6197311;28;20330;-78
2023/05/19 14:37:43;;;;;;;31.42;18.20;;;;;;;;;;6199123;28;20042;-80
2023/05/19 14:40:47;;;;;;;24.85;14.15;;;;;;;;;;6203506;28;20050;-77
2023/05/19 14:43:50;;;;;;;20.17;14.80;;;;;;;;;;6199625;28;20097;-81
2023/05/19 14:46:51;;;;;;;17.50;10.53;;;;;;;;;;6200085;28;20054;-89
2023/05/19 14:49:53;;;;;;;18.02;10.20;;;;;;;;;;6202779;28;20285;-86
2023/05/19 14:52:55;;;;;;;14.73;10.18;;;;;;;;;;6205835;28;20050;-88
2023/05/19 14:55:57;;;;;;;13.23;10.05;;;;;;;;;;6200792;28;20278;-91
2023/05/19 14:59:00;;;;;;;16.77;10.73;;;;;;;;;;6170137;28;20101;-91
2023/05/19 15:02:02;;;;;;;15.77;11.55;;;;;;;;;;6141425;28;20182;-86
2023/05/19 15:05:04;;;;;;;15.18;10.65;;;;;;;;;;6171526;28;20051;-86
2023/05/19 15:08:06;;;;;;;15.25;10.65;;;;;;;;;;6168448;28;20063;-86
2023/05/19 15:11:08;;;;;;;14.90;10.95;;;;;;;;;;6189641;28;20052;-88
2023/05/19 15:14:11;;;;;;;16.23;10.63;;;;;;;;;;6174330;28;20046;-87
2023/05/19 15:17:13;;;;;;;14.88;9.70;;;;;;;;;;6180891;28;20050;-84
2023/05/19 15:20:14;;;;;;;12.65;9.10;;;;;;;;;;6173086;28;20287;-82
2023/05/19 15:23:17;;;;;;;10.65;8.10;;;;;;;;;;6170834;28;20071;-81
2023/05/19 15:26:19;;;;;;;18.77;7.30;;;;;;;;;;6173802;28;20349;-82
2023/05/19 15:29:23;;;;;;;12.32;8.27;;;;;;;;;;6172242;28;20047;-83
2023/05/19 15:32:25;;;;;;;13.68;8.65;;;;;;;;;;6173405;28;20059;-82
2023/05/19 15:35:27;;;;;;;10.85;8.18;;;;;;;;;;6173236;28;20421;-80
2023/05/19 15:38:28;;;;;;;14.13;8.20;;;;;;;;;;6169978;28;20076;-87
2023/05/19 15:41:30;;;;;;;11.93;6.80;;;;;;;;;;6172770;28;20097;-85
2023/05/19 15:44:35;;;;;;;9.68;6.35;;;;;;;;;;6185934;28;20180;-87
2023/05/19 15:47:36;;;;;;;7.85;5.40;;;;;;;;;;6195649;28;20042;-85
2023/05/19 15:50:38;;;;;;;7.53;5.65;;;;;;;;;;6195242;28;20093;-86
2023/05/19 15:53:40;;;;;;;9.73;5.78;;;;;;;;;;6195916;28;20061;-85
2023/05/19 15:56:42;;;;;;;7.45;5.35;;;;;;;;;;6197321;28;20062;-87
2023/05/19 15:59:45;;;;;;;9.30;6.57;;;;;;;;;;6195955;28;20061;-86
2023/05/19 16:02:46;;;;;;;10.50;6.93;;;;;;;;;;6194659;28;20104;-86
2023/05/19 16:05:48;;;;;;;11.23;7.30;;;;;;;;;;6197372;28;20062;-87
2023/05/19 16:08:50;;;;;;;10.55;7.10;;;;;;;;;;6196037;28;20065;-87
2023/05/19 16:11:51;;;;;;;10.13;7.13;;;;;;;;;;6191248;28;20058;-86
2023/05/19 16:14:54;;;;;;;9.68;6.90;;;;;;;;;;6191267;28;20054;-84
2023/05/19 16:17:56;;;;;;;10.68;6.28;;;;;;;;;;6193129;28;20270;-85
2023/05/19 16:20:58;;;;;;;9.50;6.93;;;;;;;;;;6194045;28;20223;-86
2023/05/19 16:23:59;;;;;;;12.10;7.93;;;;;;;;;;6194564;28;20066;-85
2023/05/19 16:27:01;;;;;;;10.32;7.20;;;;;;;;;;6192672;28;20334;-84
2023/05/19 16:30:05;;;;;;;8.02;6.00;;;;;;;;;;6192486;28;20046;-83
2023/05/19 16:33:06;;;;;;;;;;;;;;;;;;6193528;28;20065;-84
2023/05/19 16:36:08;;;;;;;7.93;5.93;;;;;;;;;;6193930;28;19956;-83
2023/05/19 16:39:10;;;;;;;9.98;6.65;;;;;;;;;;6193935;28;20100;-83
2023/05/19 16:42:11;;;;;;;10.35;6.72;;;;;;;;;;6195340;28;20061;-84
2023/05/19 16:45:16;;;;;;;8.15;5.95;;;;;;;;;;6193049;28;20113;-83
2023/05/19 16:48:18;;;;;;;9.25;5.72;;;;;;;;;;6192263;28;20063;-82
2023/05/19 16:51:19;;;;;;;8.77;5.75;;;;;;;;;;6192501;28;20081;-85
2023/05/19 16:54:24;;;;;;;7.55;5.15;;;;;;;;;;6194329;28;20061;-85
2023/05/19 16:57:25;;;;;;;7.63;4.90;;;;;;;;;;6193840;28;20054;-85
2023/05/19 17:00:29;;;;;;;7.20;4.65;;;;;;;;;;6196885;28;20054;-86
2023/05/19 17:03:31;;;;;;;6.00;4.60;;;;;;;;;;6194840;28;20058;-85
2023/05/19 17:06:33;;;;;;;6.65;5.13;;;;;;;;;;6195594;28;20052;-86
2023/05/19 17:09:34;;;;;;;8.95;5.75;;;;;;;;;;6192767;28;20353;-84
2023/05/19 17:12:36;;;;;;;8.20;5.05;;;;;;;;;;6191787;28;20062;-85
2023/05/19 17:15:39;;;;;;;10.02;6.32;;;;;;;;;;6194499;28;20124;-86
2023/05/19 17:18:42;;;;;;;8.82;6.43;;;;;;;;;;6193421;28;20120;-84
2023/05/19 17:21:44;;;;;;;10.23;6.82;;;;;;;;;;6193525;28;20064;-85
2023/05/19 17:24:46;;;;;;;8.82;6.18;;;;;;;;;;6192690;28;20053;-83
2023/05/19 17:27:48;;;;;;;11.25;7.03;;;;;;;;;;6193934;28;20278;-85
2023/05/19 17:30:51;;;;;;;9.68;6.72;;;;;;;;;;6195073;28;20066;-82
2023/05/19 17:33:53;;;;;;;9.07;6.87;;;;;;;;;;6192348;28;20059;-84
2023/05/19 17:36:54;;;;;;;11.88;7.38;;;;;;;;;;6192647;28;20553;-86
2023/05/19 17:39:56;;;;;;;12.27;7.50;;;;;;;;;;6192408;28;20061;-83
2023/05/19 17:42:57;;;;;;;11.00;8.10;;;;;;;;;;6195226;28;20290;-84
2023/05/19 17:46:00;;;;;;;10.65;7.68;;;;;;;;;;6193921;28;20389;-84
2023/05/19 17:49:02;;;;;;;12.57;8.40;;;;;;;;;;6193276;28;21054;-85
2023/05/19 17:52:07;;;;;;;12.10;7.97;;;;;;;;;;6147468;28;20319;-85
2023/05/19 17:55:10;;;;;;;12.77;8.20;;;;;;;;;;6146265;28;20052;-83
2023/05/19 17:58:12;;;;;;;11.45;8.60;;;;;;;;;;6143819;28;20055;-84
2023/05/19 18:01:16;;;;;;;14.45;8.40;;;;;;;;;;6140996;28;20056;-83
2023/05/19 18:04:18;;;;;;;70.68;41.53;;;;;;;;;;6154726;28;20986;-79
2023/05/19 18:07:20;;;;;;;44.80;26.90;;;;;;;;;;6158609;28;20062;-78